Time;durP1;ratioP1;P1;durP2;ratioP2;P2;SDS_P1;SDS_P2;PMS_P1;PMS_P2;Temp;Humidity;BMP_temperature;BMP_pressure;BME280_temperature;BME280_humidity;BME280_pressure;Samples;Min_cycle;Max_cycle;Signal;HPM_P1;HPM_P2
2021/07/23 00:01:38;;;;;;;4.25;2.25;;;18.50;70.00;;;;;;5034011;28;20029;-86
2021/07/23 00:04:04;;;;;;;3.78;2.13;;;18.60;70.10;;;;;;5034935;28;20022;-87
2021/07/23 00:06:30;;;;;;;3.63;1.73;;;18.60;70.10;;;;;;5033737;28;20013;-87
2021/07/23 00:08:55;;;;;;;5.22;2.08;;;18.50;70.20;;;;;;5033426;28;20076;-86
2021/07/23 00:11:21;;;;;;;4.80;2.40;;;18.50;70.30;;;;;;5034473;28;20110;-86
2021/07/23 00:13:47;;;;;;;3.80;2.10;;;18.40;70.40;;;;;;5037653;28;20025;-86
2021/07/23 00:16:14;;;;;;;4.05;2.20;;;18.40;70.40;;;;;;5046555;28;20021;-86
2021/07/23 00:18:39;;;;;;;3.97;2.30;;;18.40;70.60;;;;;;5047702;28;20031;-86
2021/07/23 00:21:05;;;;;;;3.13;1.92;;;18.40;70.80;;;;;;5038009;28;20041;-86
2021/07/23 00:23:31;;;;;;;4.00;2.00;;;18.40;70.70;;;;;;5035639;28;20021;-86
2021/07/23 00:25:56;;;;;;;4.68;2.00;;;18.40;70.70;;;;;;5034492;28;20473;-86
2021/07/23 00:28:22;;;;;;;4.50;2.15;;;18.30;70.80;;;;;;5035552;28;20035;-86
2021/07/23 00:30:48;;;;;;;5.55;2.35;;;18.30;71.00;;;;;;5034489;28;20060;-86
2021/07/23 00:33:13;;;;;;;4.53;2.20;;;18.30;71.10;;;;;;5034082;28;20029;-86
2021/07/23 00:35:39;;;;;;;4.15;2.05;;;18.30;71.20;;;;;;5032264;28;20028;-86
2021/07/23 00:38:05;;;;;;;4.20;1.95;;;18.30;71.20;;;;;;5033149;28;20025;-86
2021/07/23 00:40:32;;;;;;;4.35;2.05;;;18.30;71.80;;;;;;5033967;28;20053;-86
2021/07/23 00:42:58;;;;;;;4.70;2.10;;;18.30;71.20;;;;;;5033013;28;20041;-86
2021/07/23 00:45:24;;;;;;;5.18;2.33;;;18.30;71.30;;;;;;5034067;28;20469;-87
2021/07/23 00:47:54;;;;;;;4.68;2.40;;;18.30;71.40;;;;;;5033195;28;20025;-87
2021/07/23 00:50:20;;;;;;;5.85;2.08;;;18.20;71.40;;;;;;5033008;28;20029;-87
2021/07/23 00:52:49;;;;;;;4.00;2.17;;;18.20;71.40;;;;;;5033901;28;20049;-87
2021/07/23 00:55:15;;;;;;;4.38;2.30;;;18.20;71.50;;;;;;5040827;28;20032;-86
2021/07/23 00:57:43;;;;;;;3.55;1.90;;;18.20;71.50;;;;;;5038151;28;20021;-86
2021/07/23 01:00:09;;;;;;;3.42;2.08;;;18.10;71.50;;;;;;5034231;28;20021;-86
2021/07/23 01:02:35;;;;;;;5.05;2.13;;;18.10;71.70;;;;;;5032481;28;20010;-87
2021/07/23 01:05:01;;;;;;;4.53;2.28;;;18.10;71.80;;;;;;5032065;28;20028;-86
2021/07/23 01:07:26;;;;;;;3.90;2.25;;;18.10;71.90;;;;;;5033247;28;20465;-86
2021/07/23 01:09:52;;;;;;;4.00;2.42;;;18.10;72.10;;;;;;5033053;28;20026;-86
2021/07/23 01:12:19;;;;;;;4.43;2.45;;;18.10;72.20;;;;;;5031982;28;20064;-87
2021/07/23 01:14:44;;;;;;;5.10;2.10;;;18.00;72.30;;;;;;5031427;28;20021;-85
2021/07/23 01:17:11;;;;;;;3.03;1.92;;;18.10;72.40;;;;;;5033182;28;20100;-86
2021/07/23 01:19:48;;;;;;;4.25;2.33;;;18.10;72.50;;;;;;5033511;28;20025;-87
2021/07/23 01:22:16;;;;;;;4.93;2.45;;;18.00;72.60;;;;;;5033217;28;20028;-86
2021/07/23 01:24:42;;;;;;;4.18;2.45;;;18.00;72.50;;;;;;5034106;28;20033;-86
2021/07/23 01:27:08;;;;;;;4.43;2.20;;;18.00;72.60;;;;;;5032669;28;20026;-86
2021/07/23 01:29:34;;;;;;;6.13;2.83;;;17.90;72.70;;;;;;5034859;28;20025;-86
2021/07/23 01:31:59;;;;;;;3.95;2.35;;;17.90;72.80;;;;;;5033167;28;20036;-87
2021/07/23 01:34:25;;;;;;;4.15;2.30;;;18.00;73.00;;;;;;5035844;28;20018;-86
2021/07/23 01:36:50;;;;;;;7.15;3.05;;;18.00;73.00;;;;;;5036359;28;20022;-86
2021/07/23 01:39:18;;;;;;;5.90;2.60;;;17.90;72.90;;;;;;5035600;28;20071;-86
2021/07/23 01:41:43;;;;;;;5.45;2.63;;;17.90;73.00;;;;;;5036325;28;20029;-85
2021/07/23 01:44:09;;;;;;;5.00;2.30;;;17.90;73.00;;;;;;5036445;28;20017;-85
2021/07/23 01:46:35;;;;;;;4.47;2.40;;;17.90;73.10;;;;;;5035334;28;20026;-85
2021/07/23 01:49:01;;;;;;;5.65;2.60;;;17.90;73.10;;;;;;5034812;28;20116;-85
2021/07/23 01:51:26;;;;;;;5.55;2.47;;;17.90;73.10;;;;;;5036687;28;20018;-86
2021/07/23 01:53:52;;;;;;;5.13;2.70;;;17.90;73.10;;;;;;5035032;28;20048;-86
2021/07/23 01:56:18;;;;;;;5.35;2.50;;;17.80;73.20;;;;;;5037266;28;20026;-86
2021/07/23 01:58:44;;;;;;;4.43;2.28;;;17.80;73.30;;;;;;5036557;28;20122;-85
2021/07/23 02:01:09;;;;;;;3.95;2.35;;;17.80;73.30;;;;;;5036832;28;20022;-85
2021/07/23 02:03:35;;;;;;;6.30;2.33;;;17.80;73.40;;;;;;5035531;28;20361;-85
2021/07/23 02:06:01;;;;;;;4.93;2.50;;;17.70;73.40;;;;;;5036252;28;20063;-85
2021/07/23 02:08:26;;;;;;;5.57;2.22;;;17.70;73.40;;;;;;5035286;28;20045;-86
2021/07/23 02:10:52;;;;;;;5.45;2.58;;;17.70;73.50;;;;;;5035019;28;20468;-87
2021/07/23 02:13:17;;;;;;;4.78;2.70;;;17.70;73.40;;;;;;5036862;28;20026;-86
2021/07/23 02:15:44;;;;;;;5.32;2.35;;;17.70;73.60;;;;;;5036458;28;20037;-86
2021/07/23 02:18:10;;;;;;;4.68;2.47;;;17.60;73.60;;;;;;5035578;28;20032;-86
2021/07/23 02:20:37;;;;;;;5.90;2.55;;;17.60;73.70;;;;;;5035147;28;20013;-87
2021/07/23 02:23:04;;;;;;;6.68;2.40;;;17.60;73.70;;;;;;5034841;28;20021;-87
2021/07/23 02:25:31;;;;;;;4.78;2.20;;;17.60;73.70;;;;;;5036601;28;20021;-87
2021/07/23 02:27:57;;;;;;;4.80;2.63;;;17.60;73.80;;;;;;5036265;28;20480;-86
2021/07/23 02:30:22;;;;;;;6.05;3.10;;;17.60;73.80;;;;;;5036353;28;20021;-87
2021/07/23 02:32:48;;;;;;;3.78;2.08;;;17.60;73.90;;;;;;5035238;28;20048;-85
2021/07/23 02:35:14;;;;;;;5.05;2.85;;;17.60;73.90;;;;;;5036352;28;20021;-86
2021/07/23 02:37:39;;;;;;;6.25;2.60;;;17.60;74.00;;;;;;5051162;28;20029;-85
2021/07/23 02:40:06;;;;;;;4.40;2.60;;;17.50;74.00;;;;;;5054649;28;20025;-85
2021/07/23 02:42:32;;;;;;;4.88;2.85;;;17.60;74.20;;;;;;5055640;28;20017;-87
2021/07/23 02:44:58;;;;;;;6.63;3.15;;;17.50;74.20;;;;;;5053743;28;20020;-87
2021/07/23 02:47:23;;;;;;;6.32;2.67;;;17.50;74.30;;;;;;5051150;28;20040;-86
2021/07/23 02:49:49;;;;;;;5.93;2.65;;;17.50;74.40;;;;;;5044590;28;20024;-87
2021/07/23 02:52:15;;;;;;;3.83;2.33;;;17.50;74.40;;;;;;5044269;28;20050;-85
2021/07/23 02:54:41;;;;;;;5.32;2.33;;;17.50;74.30;;;;;;5035281;28;20025;-86
2021/07/23 02:57:06;;;;;;;5.53;2.33;;;17.50;74.40;;;;;;5035299;28;20420;-85
2021/07/23 02:59:32;;;;;;;4.32;2.50;;;17.50;74.40;;;;;;5035843;28;20466;-86
2021/07/23 03:01:57;;;;;;;6.00;2.78;;;17.50;74.40;;;;;;5033863;28;20311;-86
2021/07/23 03:04:23;;;;;;;4.18;2.50;;;17.40;74.50;;;;;;5035787;28;20021;-86
2021/07/23 03:06:49;;;;;;;5.85;2.58;;;17.40;74.70;;;;;;5034873;28;20024;-85
2021/07/23 03:09:14;;;;;;;4.63;2.50;;;17.40;74.80;;;;;;5034271;28;20037;-86
2021/07/23 03:11:40;;;;;;;5.47;2.45;;;17.30;74.80;;;;;;5034146;28;20080;-87
2021/07/23 03:14:05;;;;;;;4.50;2.40;;;17.30;74.90;;;;;;5033413;28;20449;-86
2021/07/23 03:16:31;;;;;;;4.80;2.65;;;17.30;74.90;;;;;;5034849;28;20052;-86
2021/07/23 03:18:57;;;;;;;5.53;2.70;;;17.20;75.00;;;;;;5034530;28;20030;-85
2021/07/23 03:21:23;;;;;;;5.57;2.58;;;17.20;75.10;;;;;;5034068;28;20017;-85
2021/07/23 03:23:49;;;;;;;6.10;2.67;;;17.20;75.10;;;;;;5034832;28;20028;-85
2021/07/23 03:26:15;;;;;;;4.97;2.42;;;17.20;75.10;;;;;;5034115;28;20022;-86
2021/07/23 03:28:41;;;;;;;4.97;2.72;;;17.20;75.10;;;;;;5035110;28;20033;-86
2021/07/23 03:31:13;;;;;;;5.22;2.42;;;17.20;75.10;;;;;;5034769;28;20170;-85
2021/07/23 03:33:40;;;;;;;4.07;2.28;;;17.30;75.20;;;;;;5035655;28;20030;-86
2021/07/23 03:36:05;;;;;;;5.63;2.50;;;17.20;75.10;;;;;;5034499;28;20017;-86
2021/07/23 03:38:31;;;;;;;5.20;2.28;;;17.20;75.20;;;;;;5034683;28;20017;-86
2021/07/23 03:40:57;;;;;;;5.55;2.50;;;17.20;75.20;;;;;;5034997;28;20022;-86
2021/07/23 03:43:23;;;;;;;5.22;2.72;;;17.20;75.30;;;;;;5034468;28;20013;-86
2021/07/23 03:45:48;;;;;;;4.80;2.33;;;17.20;75.50;;;;;;5034210;28;20521;-85
2021/07/23 03:48:14;;;;;;;6.28;2.85;;;17.20;75.50;;;;;;5033675;28;20103;-86
2021/07/23 03:50:40;;;;;;;4.47;2.38;;;17.20;75.50;;;;;;5034754;28;20091;-87
2021/07/23 03:53:05;;;;;;;4.40;2.45;;;17.10;75.40;;;;;;5032444;28;20091;-86
2021/07/23 03:55:31;;;;;;;5.30;2.50;;;17.20;75.50;;;;;;5032975;28;20017;-88
2021/07/23 03:57:56;;;;;;;5.45;2.63;;;17.10;75.50;;;;;;5030918;28;20025;-85
2021/07/23 04:00:23;;;;;;;4.47;2.40;;;17.10;75.60;;;;;;5025186;28;20429;-86
2021/07/23 04:02:49;;;;;;;5.88;2.50;;;17.10;75.70;;;;;;5034323;28;20045;-81
2021/07/23 04:05:15;;;;;;;5.50;2.90;;;17.10;75.80;;;;;;5033337;28;20025;-87
2021/07/23 04:07:40;;;;;;;5.45;2.80;;;17.10;75.80;;;;;;5049675;28;20394;-86
2021/07/23 04:10:06;;;;;;;5.65;2.60;;;17.10;75.90;;;;;;5032388;28;20024;-87
2021/07/23 04:12:32;;;;;;;6.65;2.72;;;17.10;75.90;;;;;;5049549;28;20018;-87
2021/07/23 04:14:58;;;;;;;5.00;2.42;;;17.10;75.90;;;;;;5033815;28;20028;-87
2021/07/23 04:17:23;;;;;;;5.80;2.35;;;17.00;75.90;;;;;;5032816;28;20018;-86
2021/07/23 04:19:49;;;;;;;5.43;2.22;;;17.10;75.90;;;;;;5034444;28;20054;-87
2021/07/23 04:22:16;;;;;;;6.20;2.75;;;17.00;75.90;;;;;;5029657;28;20101;-87
2021/07/23 04:24:43;;;;;;;6.32;3.00;;;17.00;76.00;;;;;;5024573;28;20025;-86
2021/07/23 04:27:09;;;;;;;6.22;2.95;;;17.00;76.00;;;;;;5020322;28;20057;-87
2021/07/23 04:29:34;;;;;;;4.55;2.65;;;17.00;76.00;;;;;;5025140;28;20500;-87
2021/07/23 04:32:00;;;;;;;4.82;2.65;;;17.00;76.10;;;;;;5031078;28;20021;-87
2021/07/23 04:34:26;;;;;;;6.15;2.47;;;16.90;76.20;;;;;;5032502;28;20109;-88
2021/07/23 04:36:51;;;;;;;5.18;2.72;;;16.90;76.20;;;;;;5017587;28;20475;-83
2021/07/23 04:39:17;;;;;;;5.78;2.80;;;17.00;76.30;;;;;;5012117;28;20313;-88
2021/07/23 04:41:43;;;;;;;5.30;2.42;;;17.00;76.20;;;;;;5013911;28;20036;-88
2021/07/23 04:44:08;;;;;;;4.88;2.72;;;17.10;76.00;;;;;;5011651;28;20014;-88
2021/07/23 04:46:34;;;;;;;6.45;2.80;;;17.00;76.00;;;;;;5012741;28;20176;-88
2021/07/23 04:49:00;;;;;;;6.53;3.17;;;17.10;76.00;;;;;;5020901;28;20033;-81
2021/07/23 04:51:27;;;;;;;5.43;2.65;;;17.10;76.00;;;;;;5032364;28;20438;-82
2021/07/23 04:53:53;;;;;;;5.85;2.78;;;17.10;76.00;;;;;;5030437;28;20038;-81
2021/07/23 04:56:18;;;;;;;6.03;2.72;;;17.10;75.90;;;;;;5011824;28;20371;-83
2021/07/23 04:58:44;;;;;;;4.20;2.28;;;17.10;76.00;;;;;;5011620;28;20370;-79
2021/07/23 05:01:09;;;;;;;6.38;2.55;;;17.10;76.00;;;;;;5011772;28;20018;-79
2021/07/23 05:03:39;;;;;;;5.18;2.47;;;17.10;76.20;;;;;;5020227;28;20483;-80
2021/07/23 05:06:06;;;;;;;6.13;2.65;;;17.10;76.30;;;;;;5010145;28;20036;-79
2021/07/23 05:08:33;;;;;;;5.53;2.75;;;17.20;76.40;;;;;;5012558;28;20033;-80
2021/07/23 05:11:00;;;;;;;5.25;2.53;;;17.20;76.30;;;;;;5026014;28;20084;-80
2021/07/23 05:13:26;;;;;;;5.30;2.63;;;17.20;76.80;;;;;;5030874;28;20026;-79
2021/07/23 05:15:53;;;;;;;5.25;2.28;;;17.20;76.30;;;;;;5032030;28;20161;-77
2021/07/23 05:18:19;;;;;;;5.53;2.80;;;17.20;76.30;;;;;;5028841;28;20120;-81
2021/07/23 05:20:45;;;;;;;7.38;2.67;;;17.20;76.30;;;;;;5032188;28;20075;-82
2021/07/23 05:23:11;;;;;;;7.47;2.80;;;17.30;76.30;;;;;;5031446;28;20026;-81
2021/07/23 05:25:38;;;;;;;5.35;2.35;;;17.30;76.50;;;;;;5032132;28;20090;-82
2021/07/23 05:28:04;;;;;;;6.38;2.83;;;17.30;76.40;;;;;;5030124;28;20500;-82
2021/07/23 05:30:30;;;;;;;5.63;2.72;;;17.30;76.40;;;;;;5030841;28;20037;-82
2021/07/23 05:32:56;;;;;;;5.68;2.42;;;17.40;76.50;;;;;;5032037;28;20402;-79
2021/07/23 05:35:21;;;;;;;4.60;2.40;;;17.40;76.50;;;;;;5031852;28;20026;-81
2021/07/23 05:37:47;;;;;;;4.38;2.40;;;17.50;76.40;;;;;;5030499;28;20025;-82
2021/07/23 05:40:15;;;;;;;4.55;2.35;;;17.50;76.30;;;;;;5031032;28;20422;-81
2021/07/23 05:42:41;;;;;;;5.22;2.60;;;17.50;76.30;;;;;;5032278;28;20092;-82
2021/07/23 05:45:08;;;;;;;4.18;2.03;;;17.50;76.30;;;;;;5031247;28;20509;-81
2021/07/23 05:47:33;;;;;;;4.55;2.13;;;17.60;76.40;;;;;;5032007;28;20030;-81
2021/07/23 05:49:59;;;;;;;6.35;2.50;;;17.60;76.40;;;;;;5030133;28;20365;-82
2021/07/23 05:52:24;;;;;;;3.97;2.08;;;17.60;76.40;;;;;;5031707;28;20048;-82
2021/07/23 05:54:50;;;;;;;4.07;2.00;;;17.60;76.40;;;;;;5030853;28;20017;-82
2021/07/23 05:57:17;;;;;;;4.28;2.25;;;17.70;76.60;;;;;;5031305;28;20027;-82
2021/07/23 05:59:45;;;;;;;5.22;1.92;;;17.70;76.60;;;;;;5031843;28;20049;-83
2021/07/23 06:02:10;;;;;;;2.92;1.70;;;17.70;76.50;;;;;;5029808;28;20017;-82
2021/07/23 06:04:36;;;;;;;4.55;1.73;;;17.70;76.60;;;;;;5030448;28;20386;-82
2021/07/23 06:07:05;;;;;;;2.88;1.58;;;17.80;76.60;;;;;;5030933;28;20024;-82
2021/07/23 06:09:32;;;;;;;4.07;1.90;;;17.80;76.40;;;;;;5030246;28;20013;-82
2021/07/23 06:11:57;;;;;;;2.70;1.48;;;17.80;76.50;;;;;;5030390;28;20401;-82
2021/07/23 06:14:23;;;;;;;3.75;1.60;;;17.80;76.60;;;;;;5029342;28;20481;-82
2021/07/23 06:16:49;;;;;;;4.05;1.63;;;17.90;76.50;;;;;;5030366;28;20017;-83
2021/07/23 06:19:14;;;;;;;2.17;1.52;;;17.90;76.30;;;;;;5033155;28;20032;-82
2021/07/23 06:21:40;;;;;;;2.28;1.35;;;17.90;76.10;;;;;;5034094;28;20017;-82
2021/07/23 06:24:06;;;;;;;2.65;1.65;;;17.90;76.10;;;;;;5033277;28;20377;-82
2021/07/23 06:26:32;;;;;;;2.88;1.70;;;18.00;76.10;;;;;;5034187;28;20014;-82
2021/07/23 06:28:57;;;;;;;2.47;1.48;;;18.00;76.10;;;;;;5035475;28;20057;-83
2021/07/23 06:31:23;;;;;;;3.95;1.60;;;18.00;76.10;;;;;;5033239;28;20100;-82
2021/07/23 06:33:49;;;;;;;2.28;1.63;;;18.10;76.10;;;;;;5034985;28;20062;-82
2021/07/23 06:36:15;;;;;;;5.53;1.80;;;18.10;76.20;;;;;;5032970;28;20013;-82
2021/07/23 06:38:41;;;;;;;3.30;1.92;;;18.10;76.20;;;;;;5034626;28;20055;-81
2021/07/23 06:41:06;;;;;;;4.38;1.95;;;18.10;76.20;;;;;;5032480;28;20350;-81
2021/07/23 06:43:33;;;;;;;4.28;2.15;;;18.20;76.20;;;;;;5034668;28;20100;-81
2021/07/23 06:46:00;;;;;;;3.25;1.80;;;18.20;76.20;;;;;;5033459;28;20400;-82
2021/07/23 06:48:26;;;;;;;4.18;1.70;;;18.30;76.30;;;;;;5034636;28;20029;-82
2021/07/23 06:50:52;;;;;;;5.07;1.92;;;18.40;76.30;;;;;;5033249;28;20388;-82
2021/07/23 06:53:19;;;;;;;4.20;1.70;;;18.50;76.00;;;;;;5032477;28;20473;-82
2021/07/23 06:55:45;;;;;;;4.65;2.15;;;18.60;75.70;;;;;;5034233;28;20037;-82
2021/07/23 06:58:11;;;;;;;3.55;1.90;;;18.70;75.40;;;;;;5033893;28;20028;-82
2021/07/23 07:00:37;;;;;;;4.13;2.13;;;18.70;75.10;;;;;;5034874;28;20017;-83
2021/07/23 07:03:06;;;;;;;5.38;2.22;;;18.80;75.00;;;;;;5034259;28;20021;-82
2021/07/23 07:05:32;;;;;;;3.05;1.90;;;18.90;75.00;;;;;;5033354;28;20032;-83
2021/07/23 07:08:01;;;;;;;4.10;2.03;;;19.00;74.90;;;;;;5035025;28;20025;-82
2021/07/23 07:10:27;;;;;;;3.13;1.77;;;19.00;74.60;;;;;;5033080;28;20014;-82
2021/07/23 07:13:00;;;;;;;3.47;1.98;;;19.10;74.40;;;;;;5033704;28;20018;-83
2021/07/23 07:15:26;;;;;;;4.28;2.00;;;19.20;74.30;;;;;;5034522;28;20377;-82
2021/07/23 07:17:59;;;;;;;3.28;1.70;;;19.30;74.10;;;;;;5035071;28;20018;-82
2021/07/23 07:20:25;;;;;;;4.22;2.10;;;19.40;73.70;;;;;;5033600;28;20026;-83
2021/07/23 07:22:55;;;;;;;7.32;2.17;;;19.40;73.50;;;;;;5033791;28;20093;-83
2021/07/23 07:25:22;;;;;;;3.70;1.92;;;19.60;73.20;;;;;;5033718;28;20364;-84
2021/07/23 07:27:48;;;;;;;4.18;1.98;;;19.60;72.90;;;;;;5033122;28;20029;-82
2021/07/23 07:30:14;;;;;;;3.70;2.05;;;19.60;72.70;;;;;;5031829;28;20017;-82
2021/07/23 07:32:40;;;;;;;4.88;2.05;;;19.60;72.60;;;;;;5033045;28;20018;-83
2021/07/23 07:35:06;;;;;;;3.42;1.70;;;19.70;72.50;;;;;;5032849;28;20025;-82
2021/07/23 07:37:32;;;;;;;3.33;1.90;;;19.70;72.20;;;;;;5034587;28;20462;-83
2021/07/23 07:39:58;;;;;;;4.88;1.73;;;19.80;72.20;;;;;;5033167;28;20014;-82
2021/07/23 07:42:24;;;;;;;2.88;2.00;;;19.90;72.00;;;;;;5032379;28;20461;-84
2021/07/23 07:44:50;;;;;;;3.78;1.75;;;19.90;71.70;;;;;;5032885;28;20037;-83
2021/07/23 07:47:16;;;;;;;3.78;2.00;;;20.00;71.50;;;;;;5032102;28;20021;-83
2021/07/23 07:49:42;;;;;;;4.10;1.90;;;20.10;71.50;;;;;;5032772;28;20021;-83
2021/07/23 07:52:07;;;;;;;3.50;1.77;;;20.20;71.20;;;;;;5032840;28;20041;-82
2021/07/23 07:54:33;;;;;;;2.67;1.70;;;20.20;71.00;;;;;;5034038;28;20404;-83
2021/07/23 07:57:06;;;;;;;3.78;1.60;;;20.30;70.90;;;;;;5032880;28;20014;-83
2021/07/23 07:59:32;;;;;;;3.13;1.52;;;20.30;70.90;;;;;;5033764;28;20021;-84
2021/07/23 08:01:58;;;;;;;2.92;1.70;;;20.30;70.80;;;;;;5034065;28;20024;-84
2021/07/23 08:04:24;;;;;;;3.00;1.67;;;20.40;70.60;;;;;;5031488;28;20287;-81
2021/07/23 08:06:49;;;;;;;2.72;1.63;;;20.40;70.40;;;;;;5036699;28;20045;-81
2021/07/23 08:09:15;;;;;;;3.83;1.88;;;20.50;70.40;;;;;;5037369;28;20034;-82
2021/07/23 08:11:41;;;;;;;3.35;1.63;;;20.50;70.20;;;;;;5037090;28;20022;-83
2021/07/23 08:14:07;;;;;;;2.15;1.52;;;20.60;70.10;;;;;;5035994;28;20021;-80
2021/07/23 08:16:34;;;;;;;3.67;1.70;;;20.70;70.00;;;;;;5033611;28;20049;-83
2021/07/23 08:19:01;;;;;;;2.70;1.42;;;20.70;69.80;;;;;;5033756;28;20535;-82
2021/07/23 08:21:28;;;;;;;3.13;1.75;;;20.70;69.70;;;;;;5030965;28;20013;-82
2021/07/23 08:23:54;;;;;;;3.13;1.80;;;20.70;69.60;;;;;;5033062;28;20020;-82
2021/07/23 08:26:20;;;;;;;3.90;1.80;;;20.70;69.70;;;;;;5032376;28;20097;-82
2021/07/23 08:28:46;;;;;;;3.33;1.63;;;20.70;69.60;;;;;;5032632;28;20064;-82
2021/07/23 08:31:11;;;;;;;5.22;2.00;;;20.80;69.70;;;;;;5032010;28;20442;-81
2021/07/23 08:33:37;;;;;;;4.53;1.98;;;20.80;69.60;;;;;;5032826;28;20044;-82
2021/07/23 08:36:03;;;;;;;4.07;2.20;;;20.90;69.60;;;;;;5031292;28;20040;-82
2021/07/23 08:38:28;;;;;;;4.63;1.92;;;20.90;69.30;;;;;;5031973;28;20325;-82
2021/07/23 08:40:54;;;;;;;2.97;1.70;;;20.90;69.30;;;;;;5030151;28;20057;-82
2021/07/23 08:43:20;;;;;;;4.88;1.90;;;21.00;69.90;;;;;;5031863;28;20045;-82
2021/07/23 08:45:45;;;;;;;3.40;1.90;;;21.10;69.10;;;;;;5032470;28;20064;-82
2021/07/23 08:48:11;;;;;;;3.88;1.92;;;21.10;69.10;;;;;;5031755;28;20388;-82
2021/07/23 08:50:37;;;;;;;3.80;1.70;;;21.10;69.10;;;;;;5032437;28;20021;-83
2021/07/23 08:53:09;;;;;;;3.67;1.83;;;21.00;69.20;;;;;;5030985;28;20042;-83
2021/07/23 08:55:36;;;;;;;2.78;1.67;;;21.00;69.30;;;;;;5031143;28;20025;-82
2021/07/23 08:58:02;;;;;;;4.22;1.80;;;21.10;69.30;;;;;;5032392;28;20026;-82
2021/07/23 09:00:27;;;;;;;4.35;2.05;;;21.10;69.30;;;;;;5031898;28;20070;-82
2021/07/23 09:02:53;;;;;;;3.42;1.80;;;21.20;69.20;;;;;;5030847;28;20009;-82
2021/07/23 09:05:20;;;;;;;2.45;1.60;;;21.20;69.10;;;;;;5031809;28;20028;-82
2021/07/23 09:07:46;;;;;;;2.78;1.70;;;21.20;69.10;;;;;;5031033;28;20053;-83
2021/07/23 09:10:24;;;;;;;4.85;1.80;;;21.30;69.00;;;;;;5030234;28;20049;-83
2021/07/23 09:12:51;;;;;;;2.30;1.33;;;21.40;69.00;;;;;;5034252;28;20013;-82
2021/07/23 09:15:27;;;;;;;3.47;1.80;;;21.40;68.80;;;;;;5031799;28;20017;-83
2021/07/23 09:17:54;;;;;;;3.75;1.67;;;21.40;68.80;;;;;;5031786;28;20049;-81
2021/07/23 09:20:28;;;;;;;4.65;2.10;;;21.50;68.80;;;;;;5033575;28;20438;-82
2021/07/23 09:23:00;;;;;;;3.90;1.65;;;21.50;68.60;;;;;;5045477;28;20021;-82
2021/07/23 09:25:36;;;;;;;4.13;1.88;;;21.50;68.70;;;;;;5045952;28;20028;-84
2021/07/23 09:28:02;;;;;;;4.15;1.95;;;21.60;68.70;;;;;;5041549;28;20151;-83
2021/07/23 09:30:42;;;;;;;3.30;1.70;;;21.50;68.50;;;;;;5033973;28;20022;-83
2021/07/23 09:33:08;;;;;;;3.80;1.73;;;21.50;68.50;;;;;;5032656;28;20021;-83
2021/07/23 09:35:34;;;;;;;4.90;1.80;;;21.50;68.50;;;;;;5030242;28;20366;-83
2021/07/23 09:38:00;;;;;;;4.95;2.03;;;21.50;68.50;;;;;;5032346;28;20079;-83
2021/07/23 09:40:42;;;;;;;3.75;1.65;;;21.50;68.50;;;;;;5030378;28;20053;-83
2021/07/23 09:43:08;;;;;;;3.30;1.90;;;21.50;68.60;;;;;;5032088;28;20093;-83
2021/07/23 09:45:34;;;;;;;4.28;1.90;;;21.50;68.70;;;;;;5031609;28;20100;-83
2021/07/23 09:48:13;;;;;;;4.82;1.92;;;21.50;68.70;;;;;;5031930;28;20108;-83
2021/07/23 09:50:46;;;;;;;3.67;1.60;;;21.60;68.70;;;;;;5030711;28;20026;-83
2021/07/23 09:53:13;;;;;;;3.25;1.85;;;21.70;68.50;;;;;;5032191;28;20164;-83
2021/07/23 09:55:40;;;;;;;3.30;1.67;;;21.80;68.30;;;;;;5034616;28;20025;-83
2021/07/23 09:58:07;;;;;;;3.05;1.45;;;21.90;68.70;;;;;;5034492;28;20079;-83
2021/07/23 10:00:38;;;;;;;3.97;1.73;;;21.90;67.90;;;;;;5034052;28;20108;-83
2021/07/23 10:03:14;;;;;;;;;;;21.90;67.80;;;;;;5034878;28;20017;-83
2021/07/23 10:05:46;;;;;;;3.70;1.67;;;21.90;67.90;;;;;;5033507;28;19901;-83
2021/07/23 10:08:20;;;;;;;4.40;2.03;;;21.90;67.90;;;;;;5034071;28;20017;-83
2021/07/23 10:10:50;;;;;;;3.63;1.90;;;21.90;67.70;;;;;;5035692;28;20036;-83
2021/07/23 10:13:22;;;;;;;2.47;1.63;;;22.00;67.70;;;;;;5035262;28;20071;-82
2021/07/23 10:15:49;;;;;;;3.33;1.70;;;22.00;67.60;;;;;;5035703;28;20040;-84
2021/07/23 10:18:16;;;;;;;3.22;1.55;;;22.10;67.60;;;;;;5035411;28;20018;-83
2021/07/23 10:20:41;;;;;;;2.85;1.73;;;22.10;67.40;;;;;;5033971;28;20014;-83
2021/07/23 10:23:07;;;;;;;4.45;1.75;;;22.20;67.30;;;;;;5034556;28;20476;-83
2021/07/23 10:25:34;;;;;;;3.78;1.80;;;22.20;67.00;;;;;;5034524;28;20600;-83
2021/07/23 10:28:03;;;;;;;3.38;1.65;;;22.20;67.00;;;;;;5035128;28;20029;-83
2021/07/23 10:30:31;;;;;;;3.70;1.55;;;22.30;67.50;;;;;;5033240;28;20026;-82
2021/07/23 10:32:57;;;;;;;4.18;1.85;;;22.30;66.80;;;;;;5034988;28;20018;-82
2021/07/23 10:35:25;;;;;;;3.15;1.80;;;22.30;66.60;;;;;;5034882;28;20055;-83
2021/07/23 10:37:52;;;;;;;4.20;2.13;;;22.30;66.60;;;;;;5033596;28;20087;-82
2021/07/23 10:40:20;;;;;;;5.30;1.98;;;22.40;66.40;;;;;;5034266;28;20450;-82
2021/07/23 10:42:47;;;;;;;6.35;2.08;;;22.40;66.10;;;;;;5033762;28;20045;-83
2021/07/23 10:45:15;;;;;;;3.55;1.70;;;22.50;65.90;;;;;;5035002;28;20068;-83
2021/07/23 10:47:44;;;;;;;4.90;1.92;;;22.50;66.50;;;;;;5034411;28;20109;-83
2021/07/23 10:50:14;;;;;;;3.88;1.90;;;22.50;65.80;;;;;;5034801;28;20014;-82
2021/07/23 10:52:40;;;;;;;3.10;1.70;;;22.50;65.50;;;;;;5033993;28;20087;-82
2021/07/23 10:55:27;;;;;;;3.90;1.80;;;22.40;65.70;;;;;;5033863;28;20053;-84
2021/07/23 10:58:05;;;;;;;3.70;1.77;;;22.40;65.90;;;;;;5034604;28;20029;-83
2021/07/23 11:00:52;;;;;;;4.97;1.88;;;22.50;65.60;;;;;;5033531;28;20025;-83
2021/07/23 11:03:36;;;;;;;3.78;1.83;;;22.50;65.40;;;;;;5033418;28;20056;-85
2021/07/23 11:06:33;;;;;;;3.22;1.85;;;22.60;65.20;;;;;;5033650;28;20028;-83
2021/07/23 11:09:03;;;;;;;3.45;1.88;;;22.70;65.10;;;;;;5033616;28;20374;-83
2021/07/23 11:11:29;;;;;;;5.43;1.85;;;22.70;65.00;;;;;;5033094;28;20021;-83
2021/07/23 11:13:55;;;;;;;3.25;1.98;;;22.80;65.10;;;;;;5035436;28;20013;-84
2021/07/23 11:16:26;;;;;;;4.95;1.92;;;22.80;64.80;;;;;;5034885;28;20071;-82
2021/07/23 11:18:59;;;;;;;4.70;1.88;;;22.80;64.70;;;;;;5035613;28;20021;-84
2021/07/23 11:21:36;;;;;;;3.83;1.52;;;22.80;64.40;;;;;;5035210;28;20028;-84
2021/07/23 11:24:13;;;;;;;2.60;1.48;;;22.80;64.40;;;;;;5034223;28;20453;-84
2021/07/23 11:26:47;;;;;;;2.88;1.83;;;22.80;64.50;;;;;;5033535;28;20018;-84
2021/07/23 11:29:13;;;;;;;4.72;2.05;;;22.90;64.30;;;;;;5033923;28;20095;-83
2021/07/23 11:31:42;;;;;;;4.32;1.90;;;23.00;64.10;;;;;;5034687;28;20017;-83
2021/07/23 11:34:26;;;;;;;3.92;1.90;;;23.20;64.00;;;;;;5035336;28;20013;-83
2021/07/23 11:36:52;;;;;;;3.58;1.95;;;23.30;63.50;;;;;;5035382;28;20021;-84
2021/07/23 11:39:23;;;;;;;4.15;2.10;;;23.30;63.40;;;;;;5033475;28;20567;-85
2021/07/23 11:42:00;;;;;;;6.22;2.28;;;23.30;63.50;;;;;;5033644;28;20357;-82
2021/07/23 11:44:27;;;;;;;3.75;1.90;;;23.30;63.30;;;;;;5033482;28;20021;-83
2021/07/23 11:46:53;;;;;;;3.67;1.85;;;23.40;63.30;;;;;;5034386;28;20021;-83
2021/07/23 11:49:18;;;;;;;3.33;1.90;;;23.30;63.20;;;;;;5033918;28;20037;-84
2021/07/23 11:51:47;;;;;;;5.47;2.00;;;23.30;63.20;;;;;;5034235;28;20017;-83
2021/07/23 11:54:18;;;;;;;2.88;1.90;;;23.20;63.40;;;;;;5032422;28;20042;-84
2021/07/23 11:56:44;;;;;;;5.38;2.15;;;23.20;63.60;;;;;;5030449;28;20034;-84
2021/07/23 11:59:10;;;;;;;5.20;2.40;;;23.30;63.60;;;;;;5018723;28;20049;-83
2021/07/23 12:01:40;;;;;;;4.30;2.03;;;23.40;63.40;;;;;;5028255;28;20025;-83
2021/07/23 12:04:08;;;;;;;3.70;2.10;;;23.60;63.10;;;;;;5028775;28;20040;-82
2021/07/23 12:06:38;;;;;;;4.38;2.00;;;23.70;62.80;;;;;;5012792;28;20034;-82
2021/07/23 12:09:09;;;;;;;4.70;1.85;;;23.80;62.40;;;;;;5028962;28;20030;-83
2021/07/23 12:11:36;;;;;;;4.05;1.90;;;23.90;62.10;;;;;;5013604;28;20029;-82
2021/07/23 12:14:10;;;;;;;4.82;2.00;;;24.10;61.90;;;;;;5014672;28;20030;-83
2021/07/23 12:16:38;;;;;;;4.82;2.03;;;24.20;61.30;;;;;;5028486;28;20067;-83
2021/07/23 12:19:09;;;;;;;3.13;1.70;;;24.30;61.00;;;;;;5029227;28;20478;-83
2021/07/23 12:21:36;;;;;;;5.78;2.22;;;24.40;60.90;;;;;;5013987;28;20030;-83
2021/07/23 12:24:07;;;;;;;4.93;2.50;;;24.40;60.70;;;;;;5037410;28;20064;-82
2021/07/23 12:26:42;;;;;;;;;;;24.50;60.60;;;;;;5012911;28;20113;-82
2021/07/23 12:29:09;;;;;;;5.88;2.20;;;24.40;60.80;;;;;;5012845;28;19917;-82
2021/07/23 12:31:39;;;;;;;4.50;2.00;;;24.40;61.00;;;;;;5012070;28;20117;-83
2021/07/23 12:34:09;;;;;;;3.97;2.10;;;24.50;60.80;;;;;;5016889;28;20426;-84
2021/07/23 12:36:50;;;;;;;4.88;2.08;;;24.40;60.70;;;;;;5029574;28;20017;-83
2021/07/23 12:39:16;;;;;;;4.22;1.70;;;24.40;60.60;;;;;;5032564;28;20116;-83
2021/07/23 12:41:45;;;;;;;4.57;2.20;;;24.20;60.90;;;;;;5033056;28;20411;-83
2021/07/23 12:44:10;;;;;;;5.07;2.53;;;24.10;61.10;;;;;;5032517;28;20021;-84
2021/07/23 12:46:38;;;;;;;4.47;2.42;;;24.30;61.00;;;;;;5032859;28;20100;-84
2021/07/23 12:49:15;;;;;;;3.70;2.10;;;24.50;60.40;;;;;;5032131;28;20029;-83